sensor_id;sensor_type;location;lat;lon;timestamp;P1;durP1;ratioP1;P2;durP2;ratioP2
66585;SDS011;53444;45.822;16.092;2024-02-21T00:00:52;10.77;;;6.30;;
66585;SDS011;53444;45.822;16.092;2024-02-21T00:03:18;15.05;;;6.53;;
66585;SDS011;53444;45.822;16.092;2024-02-21T00:05:47;15.45;;;7.05;;
66585;SDS011;53444;45.822;16.092;2024-02-21T00:08:14;12.27;;;6.43;;
66585;SDS011;53444;45.822;16.092;2024-02-21T00:10:40;11.27;;;6.15;;
66585;SDS011;53444;45.822;16.092;2024-02-21T00:13:07;13.27;;;6.88;;
66585;SDS011;53444;45.822;16.092;2024-02-21T00:15:34;12.07;;;6.68;;
66585;SDS011;53444;45.822;16.092;2024-02-21T00:18:00;10.32;;;5.70;;
66585;SDS011;53444;45.822;16.092;2024-02-21T00:20:27;10.55;;;5.65;;
66585;SDS011;53444;45.822;16.092;2024-02-21T00:22:55;10.98;;;5.57;;
66585;SDS011;53444;45.822;16.092;2024-02-21T00:25:22;11.07;;;6.15;;
66585;SDS011;53444;45.822;16.092;2024-02-21T00:27:49;10.48;;;5.28;;
66585;SDS011;53444;45.822;16.092;2024-02-21T00:30:15;13.07;;;6.18;;
66585;SDS011;53444;45.822;16.092;2024-02-21T00:32:42;10.48;;;5.60;;
66585;SDS011;53444;45.822;16.092;2024-02-21T00:35:09;14.45;;;7.25;;
66585;SDS011;53444;45.822;16.092;2024-02-21T00:37:36;11.80;;;6.75;;
66585;SDS011;53444;45.822;16.092;2024-02-21T00:40:04;12.00;;;6.15;;
66585;SDS011;53444;45.822;16.092;2024-02-21T00:42:32;12.15;;;6.15;;
66585;SDS011;53444;45.822;16.092;2024-02-21T00:44:58;14.48;;;7.20;;
66585;SDS011;53444;45.822;16.092;2024-02-21T00:47:25;13.00;;;6.50;;
66585;SDS011;53444;45.822;16.092;2024-02-21T00:49:52;11.93;;;6.27;;
66585;SDS011;53444;45.822;16.092;2024-02-21T00:52:19;11.50;;;6.45;;
66585;SDS011;53444;45.822;16.092;2024-02-21T00:54:45;14.02;;;6.88;;
66585;SDS011;53444;45.822;16.092;2024-02-21T00:57:15;12.27;;;6.35;;
66585;SDS011;53444;45.822;16.092;2024-02-21T00:59:42;11.52;;;6.60;;
66585;SDS011;53444;45.822;16.092;2024-02-21T01:02:09;15.57;;;7.20;;
66585;SDS011;53444;45.822;16.092;2024-02-21T01:04:35;13.43;;;7.50;;
66585;SDS011;53444;45.822;16.092;2024-02-21T01:07:02;15.68;;;7.78;;
66585;SDS011;53444;45.822;16.092;2024-02-21T01:09:29;13.48;;;6.55;;
66585;SDS011;53444;45.822;16.092;2024-02-21T01:11:56;13.98;;;7.05;;
66585;SDS011;53444;45.822;16.092;2024-02-21T01:14:24;12.07;;;6.17;;
66585;SDS011;53444;45.822;16.092;2024-02-21T01:16:51;12.93;;;6.50;;
66585;SDS011;53444;45.822;16.092;2024-02-21T01:19:17;14.57;;;8.05;;
66585;SDS011;53444;45.822;16.092;2024-02-21T01:21:44;14.65;;;7.55;;
66585;SDS011;53444;45.822;16.092;2024-02-21T01:24:10;13.60;;;7.55;;
66585;SDS011;53444;45.822;16.092;2024-02-21T01:26:37;15.50;;;7.90;;
66585;SDS011;53444;45.822;16.092;2024-02-21T01:29:04;12.63;;;7.07;;
66585;SDS011;53444;45.822;16.092;2024-02-21T01:31:32;13.52;;;7.35;;
66585;SDS011;53444;45.822;16.092;2024-02-21T01:33:58;12.93;;;7.05;;
66585;SDS011;53444;45.822;16.092;2024-02-21T01:36:25;13.57;;;7.05;;
66585;SDS011;53444;45.822;16.092;2024-02-21T01:38:52;15.13;;;7.03;;
66585;SDS011;53444;45.822;16.092;2024-02-21T01:41:18;13.35;;;7.28;;
66585;SDS011;53444;45.822;16.092;2024-02-21T01:43:45;13.25;;;7.03;;
66585;SDS011;53444;45.822;16.092;2024-02-21T01:46:11;12.77;;;6.57;;
66585;SDS011;53444;45.822;16.092;2024-02-21T01:48:40;13.20;;;6.88;;
66585;SDS011;53444;45.822;16.092;2024-02-21T01:51:06;13.68;;;6.50;;
66585;SDS011;53444;45.822;16.092;2024-02-21T01:53:34;12.93;;;7.28;;
66585;SDS011;53444;45.822;16.092;2024-02-21T01:56:04;22.55;;;10.93;;
66585;SDS011;53444;45.822;16.092;2024-02-21T01:58:32;20.55;;;10.10;;
66585;SDS011;53444;45.822;16.092;2024-02-21T02:01:03;24.52;;;11.32;;
66585;SDS011;53444;45.822;16.092;2024-02-21T02:03:29;22.63;;;12.27;;
66585;SDS011;53444;45.822;16.092;2024-02-21T02:05:58;21.23;;;10.30;;
66585;SDS011;53444;45.822;16.092;2024-02-21T02:08:26;18.83;;;9.40;;
66585;SDS011;53444;45.822;16.092;2024-02-21T02:10:53;15.48;;;8.57;;
66585;SDS011;53444;45.822;16.092;2024-02-21T02:13:19;15.27;;;8.93;;
66585;SDS011;53444;45.822;16.092;2024-02-21T02:15:46;13.80;;;7.53;;
66585;SDS011;53444;45.822;16.092;2024-02-21T02:18:14;14.88;;;7.70;;
66585;SDS011;53444;45.822;16.092;2024-02-21T02:20:42;17.52;;;7.68;;
66585;SDS011;53444;45.822;16.092;2024-02-21T02:23:12;14.05;;;7.38;;
66585;SDS011;53444;45.822;16.092;2024-02-21T02:25:44;13.77;;;7.25;;
66585;SDS011;53444;45.822;16.092;2024-02-21T02:28:14;12.90;;;7.53;;
66585;SDS011;53444;45.822;16.092;2024-02-21T02:30:41;15.77;;;7.63;;
66585;SDS011;53444;45.822;16.092;2024-02-21T02:33:08;16.45;;;8.15;;
66585;SDS011;53444;45.822;16.092;2024-02-21T02:35:35;14.90;;;7.60;;
66585;SDS011;53444;45.822;16.092;2024-02-21T02:38:01;17.50;;;8.48;;
66585;SDS011;53444;45.822;16.092;2024-02-21T02:40:30;16.17;;;7.72;;
66585;SDS011;53444;45.822;16.092;2024-02-21T02:42:57;15.27;;;8.63;;
66585;SDS011;53444;45.822;16.092;2024-02-21T02:45:23;16.60;;;8.45;;
66585;SDS011;53444;45.822;16.092;2024-02-21T02:47:51;14.55;;;7.78;;
66585;SDS011;53444;45.822;16.092;2024-02-21T02:50:18;14.35;;;7.93;;
66585;SDS011;53444;45.822;16.092;2024-02-21T02:52:45;18.63;;;8.70;;
66585;SDS011;53444;45.822;16.092;2024-02-21T02:55:12;18.10;;;8.88;;
66585;SDS011;53444;45.822;16.092;2024-02-21T02:57:40;16.65;;;9.52;;
66585;SDS011;53444;45.822;16.092;2024-02-21T03:00:08;15.02;;;8.85;;
66585;SDS011;53444;45.822;16.092;2024-02-21T03:02:36;16.40;;;9.48;;
66585;SDS011;53444;45.822;16.092;2024-02-21T03:05:09;16.90;;;9.13;;
66585;SDS011;53444;45.822;16.092;2024-02-21T03:07:38;18.40;;;9.23;;
66585;SDS011;53444;45.822;16.092;2024-02-21T03:10:05;20.15;;;9.85;;
66585;SDS011;53444;45.822;16.092;2024-02-21T03:12:32;18.90;;;9.32;;
66585;SDS011;53444;45.822;16.092;2024-02-21T03:15:00;17.08;;;8.63;;
66585;SDS011;53444;45.822;16.092;2024-02-21T03:17:27;18.53;;;8.97;;
66585;SDS011;53444;45.822;16.092;2024-02-21T03:19:54;17.73;;;8.80;;
66585;SDS011;53444;45.822;16.092;2024-02-21T03:22:21;16.13;;;8.18;;
66585;SDS011;53444;45.822;16.092;2024-02-21T03:24:49;15.40;;;8.43;;
66585;SDS011;53444;45.822;16.092;2024-02-21T03:27:16;13.77;;;7.05;;
66585;SDS011;53444;45.822;16.092;2024-02-21T03:29:42;14.43;;;7.40;;
66585;SDS011;53444;45.822;16.092;2024-02-21T03:32:11;16.55;;;7.85;;
66585;SDS011;53444;45.822;16.092;2024-02-21T03:34:38;16.67;;;7.35;;
66585;SDS011;53444;45.822;16.092;2024-02-21T03:37:04;11.80;;;6.70;;
66585;SDS011;53444;45.822;16.092;2024-02-21T03:39:31;12.60;;;5.65;;
66585;SDS011;53444;45.822;16.092;2024-02-21T03:41:58;10.07;;;5.37;;
66585;SDS011;53444;45.822;16.092;2024-02-21T03:44:29;10.65;;;4.43;;
66585;SDS011;53444;45.822;16.092;2024-02-21T03:46:56;8.77;;;4.95;;
66585;SDS011;53444;45.822;16.092;2024-02-21T03:49:24;8.57;;;3.95;;
66585;SDS011;53444;45.822;16.092;2024-02-21T03:51:51;10.25;;;3.67;;
66585;SDS011;53444;45.822;16.092;2024-02-21T03:54:17;7.00;;;3.70;;
66585;SDS011;53444;45.822;16.092;2024-02-21T03:56:44;6.18;;;3.72;;
66585;SDS011;53444;45.822;16.092;2024-02-21T03:59:12;7.80;;;3.92;;
66585;SDS011;53444;45.822;16.092;2024-02-21T04:01:39;9.25;;;3.63;;
66585;SDS011;53444;45.822;16.092;2024-02-21T04:04:06;5.80;;;3.10;;
66585;SDS011;53444;45.822;16.092;2024-02-21T04:06:34;5.60;;;3.10;;
66585;SDS011;53444;45.822;16.092;2024-02-21T04:09:00;8.30;;;3.38;;
66585;SDS011;53444;45.822;16.092;2024-02-21T04:11:27;6.78;;;3.15;;
66585;SDS011;53444;45.822;16.092;2024-02-21T04:13:54;4.68;;;2.58;;
66585;SDS011;53444;45.822;16.092;2024-02-21T04:16:20;5.43;;;2.50;;
66585;SDS011;53444;45.822;16.092;2024-02-21T04:18:47;5.07;;;2.43;;
66585;SDS011;53444;45.822;16.092;2024-02-21T04:21:14;4.43;;;2.10;;
66585;SDS011;53444;45.822;16.092;2024-02-21T04:23:43;3.58;;;1.88;;
66585;SDS011;53444;45.822;16.092;2024-02-21T04:26:10;4.60;;;1.95;;
66585;SDS011;53444;45.822;16.092;2024-02-21T04:28:36;5.13;;;2.00;;
66585;SDS011;53444;45.822;16.092;2024-02-21T04:31:03;3.73;;;1.87;;
66585;SDS011;53444;45.822;16.092;2024-02-21T04:33:30;6.30;;;1.75;;
66585;SDS011;53444;45.822;16.092;2024-02-21T04:35:57;3.88;;;1.88;;
66585;SDS011;53444;45.822;16.092;2024-02-21T04:38:24;5.05;;;1.98;;
66585;SDS011;53444;45.822;16.092;2024-02-21T04:40:52;5.25;;;1.60;;
66585;SDS011;53444;45.822;16.092;2024-02-21T04:43:19;5.17;;;2.37;;
66585;SDS011;53444;45.822;16.092;2024-02-21T04:45:46;7.88;;;3.33;;
66585;SDS011;53444;45.822;16.092;2024-02-21T04:48:12;7.88;;;2.63;;
66585;SDS011;53444;45.822;16.092;2024-02-21T04:50:39;3.72;;;1.98;;
66585;SDS011;53444;45.822;16.092;2024-02-21T04:53:06;4.18;;;2.28;;
66585;SDS011;53444;45.822;16.092;2024-02-21T04:55:33;4.60;;;2.23;;
66585;SDS011;53444;45.822;16.092;2024-02-21T04:58:01;5.50;;;2.63;;
66585;SDS011;53444;45.822;16.092;2024-02-21T05:00:28;6.25;;;2.67;;
66585;SDS011;53444;45.822;16.092;2024-02-21T05:02:55;9.43;;;2.75;;
66585;SDS011;53444;45.822;16.092;2024-02-21T05:05:22;3.95;;;2.17;;
66585;SDS011;53444;45.822;16.092;2024-02-21T05:07:48;6.37;;;2.47;;
66585;SDS011;53444;45.822;16.092;2024-02-21T05:10:15;12.25;;;2.75;;
66585;SDS011;53444;45.822;16.092;2024-02-21T05:12:42;6.05;;;2.42;;
66585;SDS011;53444;45.822;16.092;2024-02-21T05:15:10;6.63;;;2.47;;
66585;SDS011;53444;45.822;16.092;2024-02-21T05:17:37;6.00;;;2.97;;
66585;SDS011;53444;45.822;16.092;2024-02-21T05:20:04;44.10;;;22.80;;
66585;SDS011;53444;45.822;16.092;2024-02-21T05:22:32;25.77;;;13.23;;
66585;SDS011;53444;45.822;16.092;2024-02-21T05:24:59;13.40;;;6.72;;
66585;SDS011;53444;45.822;16.092;2024-02-21T05:27:29;9.95;;;5.45;;
66585;SDS011;53444;45.822;16.092;2024-02-21T05:29:55;10.82;;;6.55;;
66585;SDS011;53444;45.822;16.092;2024-02-21T05:32:26;18.53;;;10.23;;
66585;SDS011;53444;45.822;16.092;2024-02-21T05:34:55;21.38;;;11.45;;
66585;SDS011;53444;45.822;16.092;2024-02-21T05:37:23;20.92;;;13.70;;
66585;SDS011;53444;45.822;16.092;2024-02-21T05:39:50;30.73;;;16.05;;
66585;SDS011;53444;45.822;16.092;2024-02-21T05:42:17;27.45;;;14.98;;
66585;SDS011;53444;45.822;16.092;2024-02-21T05:44:44;21.93;;;13.20;;
66585;SDS011;53444;45.822;16.092;2024-02-21T05:47:10;16.70;;;9.68;;
66585;SDS011;53444;45.822;16.092;2024-02-21T05:49:43;12.80;;;7.22;;
66585;SDS011;53444;45.822;16.092;2024-02-21T05:52:10;13.20;;;6.10;;
66585;SDS011;53444;45.822;16.092;2024-02-21T05:54:37;16.77;;;5.68;;
66585;SDS011;53444;45.822;16.092;2024-02-21T05:57:04;15.17;;;5.30;;
66585;SDS011;53444;45.822;16.092;2024-02-21T05:59:32;12.35;;;5.20;;
66585;SDS011;53444;45.822;16.092;2024-02-21T06:02:01;12.10;;;6.35;;
66585;SDS011;53444;45.822;16.092;2024-02-21T06:04:29;14.68;;;6.32;;
66585;SDS011;53444;45.822;16.092;2024-02-21T06:06:58;17.27;;;6.82;;
66585;SDS011;53444;45.822;16.092;2024-02-21T06:09:26;14.17;;;6.40;;
66585;SDS011;53444;45.822;16.092;2024-02-21T06:11:53;12.43;;;5.20;;
66585;SDS011;53444;45.822;16.092;2024-02-21T06:14:20;11.60;;;5.07;;
66585;SDS011;53444;45.822;16.092;2024-02-21T06:16:47;12.52;;;5.38;;
66585;SDS011;53444;45.822;16.092;2024-02-21T06:19:14;12.25;;;6.05;;
66585;SDS011;53444;45.822;16.092;2024-02-21T06:21:41;22.33;;;5.70;;
66585;SDS011;53444;45.822;16.092;2024-02-21T06:24:09;13.70;;;5.35;;
66585;SDS011;53444;45.822;16.092;2024-02-21T06:26:37;12.88;;;5.95;;
66585;SDS011;53444;45.822;16.092;2024-02-21T06:29:05;14.27;;;6.22;;
66585;SDS011;53444;45.822;16.092;2024-02-21T06:31:32;24.42;;;6.90;;
66585;SDS011;53444;45.822;16.092;2024-02-21T06:33:59;21.43;;;7.20;;
66585;SDS011;53444;45.822;16.092;2024-02-21T06:36:26;15.18;;;7.03;;
66585;SDS011;53444;45.822;16.092;2024-02-21T06:38:53;16.85;;;6.10;;
66585;SDS011;53444;45.822;16.092;2024-02-21T06:41:21;22.40;;;6.80;;
66585;SDS011;53444;45.822;16.092;2024-02-21T06:43:48;15.75;;;6.72;;
66585;SDS011;53444;45.822;16.092;2024-02-21T06:46:22;18.60;;;6.97;;
66585;SDS011;53444;45.822;16.092;2024-02-21T06:48:52;16.17;;;6.75;;
66585;SDS011;53444;45.822;16.092;2024-02-21T06:51:18;15.40;;;7.05;;
66585;SDS011;53444;45.822;16.092;2024-02-21T06:53:45;13.00;;;6.40;;
66585;SDS011;53444;45.822;16.092;2024-02-21T06:56:12;15.93;;;5.57;;
66585;SDS011;53444;45.822;16.092;2024-02-21T06:58:40;9.30;;;4.53;;
66585;SDS011;53444;45.822;16.092;2024-02-21T07:01:07;7.65;;;3.97;;
66585;SDS011;53444;45.822;16.092;2024-02-21T07:03:34;10.20;;;5.18;;
66585;SDS011;53444;45.822;16.092;2024-02-21T07:06:01;16.35;;;5.68;;
66585;SDS011;53444;45.822;16.092;2024-02-21T07:08:28;15.13;;;6.22;;
66585;SDS011;53444;45.822;16.092;2024-02-21T07:10:55;14.50;;;6.77;;
66585;SDS011;53444;45.822;16.092;2024-02-21T07:13:21;15.55;;;7.68;;
66585;SDS011;53444;45.822;16.092;2024-02-21T07:15:51;20.15;;;7.65;;
66585;SDS011;53444;45.822;16.092;2024-02-21T07:18:18;20.23;;;7.85;;
66585;SDS011;53444;45.822;16.092;2024-02-21T07:20:46;19.17;;;7.97;;
66585;SDS011;53444;45.822;16.092;2024-02-21T07:23:12;18.27;;;7.60;;
66585;SDS011;53444;45.822;16.092;2024-02-21T07:25:39;22.77;;;8.68;;
66585;SDS011;53444;45.822;16.092;2024-02-21T07:28:06;22.70;;;9.20;;
66585;SDS011;53444;45.822;16.092;2024-02-21T07:30:34;15.60;;;8.43;;
66585;SDS011;53444;45.822;16.092;2024-02-21T07:33:06;24.90;;;8.85;;
66585;SDS011;53444;45.822;16.092;2024-02-21T07:35:33;27.43;;;11.10;;
66585;SDS011;53444;45.822;16.092;2024-02-21T07:38:00;32.80;;;13.85;;
66585;SDS011;53444;45.822;16.092;2024-02-21T07:40:28;32.85;;;13.10;;
66585;SDS011;53444;45.822;16.092;2024-02-21T07:42:55;20.38;;;9.57;;
66585;SDS011;53444;45.822;16.092;2024-02-21T07:45:22;16.48;;;8.77;;
66585;SDS011;53444;45.822;16.092;2024-02-21T07:47:49;21.10;;;8.17;;
66585;SDS011;53444;45.822;16.092;2024-02-21T07:50:18;16.33;;;8.40;;
66585;SDS011;53444;45.822;16.092;2024-02-21T07:52:45;21.58;;;7.80;;
66585;SDS011;53444;45.822;16.092;2024-02-21T07:55:12;15.18;;;7.35;;
66585;SDS011;53444;45.822;16.092;2024-02-21T07:57:40;16.25;;;7.53;;
66585;SDS011;53444;45.822;16.092;2024-02-21T08:00:07;14.53;;;6.50;;
66585;SDS011;53444;45.822;16.092;2024-02-21T08:02:38;12.70;;;6.63;;
66585;SDS011;53444;45.822;16.092;2024-02-21T08:05:09;13.27;;;6.93;;
66585;SDS011;53444;45.822;16.092;2024-02-21T08:07:38;13.10;;;5.65;;
66585;SDS011;53444;45.822;16.092;2024-02-21T08:10:07;10.73;;;5.50;;
66585;SDS011;53444;45.822;16.092;2024-02-21T08:12:37;10.07;;;4.93;;
66585;SDS011;53444;45.822;16.092;2024-02-21T08:15:05;11.07;;;5.35;;
66585;SDS011;53444;45.822;16.092;2024-02-21T08:17:33;10.18;;;4.45;;
66585;SDS011;53444;45.822;16.092;2024-02-21T08:20:00;8.77;;;5.03;;
66585;SDS011;53444;45.822;16.092;2024-02-21T08:22:26;12.48;;;5.03;;
66585;SDS011;53444;45.822;16.092;2024-02-21T08:24:54;8.60;;;4.47;;
66585;SDS011;53444;45.822;16.092;2024-02-21T08:27:21;7.28;;;3.65;;
66585;SDS011;53444;45.822;16.092;2024-02-21T08:29:48;9.73;;;5.05;;
66585;SDS011;53444;45.822;16.092;2024-02-21T08:32:15;10.13;;;5.13;;
66585;SDS011;53444;45.822;16.092;2024-02-21T08:34:42;9.82;;;4.95;;
66585;SDS011;53444;45.822;16.092;2024-02-21T08:37:09;8.27;;;4.80;;
66585;SDS011;53444;45.822;16.092;2024-02-21T08:39:36;9.60;;;5.03;;
66585;SDS011;53444;45.822;16.092;2024-02-21T08:42:05;9.98;;;5.40;;
66585;SDS011;53444;45.822;16.092;2024-02-21T08:44:32;11.30;;;5.50;;
66585;SDS011;53444;45.822;16.092;2024-02-21T08:46:58;11.07;;;5.80;;
66585;SDS011;53444;45.822;16.092;2024-02-21T08:49:28;12.93;;;5.60;;
66585;SDS011;53444;45.822;16.092;2024-02-21T08:51:56;8.10;;;4.97;;
66585;SDS011;53444;45.822;16.092;2024-02-21T08:54:23;10.85;;;5.22;;
66585;SDS011;53444;45.822;16.092;2024-02-21T08:56:49;11.82;;;5.05;;
66585;SDS011;53444;45.822;16.092;2024-02-21T08:59:18;9.25;;;5.05;;
66585;SDS011;53444;45.822;16.092;2024-02-21T09:01:45;8.23;;;4.60;;
66585;SDS011;53444;45.822;16.092;2024-02-21T09:04:12;8.63;;;4.32;;
66585;SDS011;53444;45.822;16.092;2024-02-21T09:06:39;8.02;;;4.35;;
66585;SDS011;53444;45.822;16.092;2024-02-21T09:09:07;8.05;;;4.50;;
66585;SDS011;53444;45.822;16.092;2024-02-21T09:11:35;7.38;;;4.40;;
66585;SDS011;53444;45.822;16.092;2024-02-21T09:14:03;7.57;;;4.50;;
66585;SDS011;53444;45.822;16.092;2024-02-21T09:16:32;8.00;;;4.97;;
66585;SDS011;53444;45.822;16.092;2024-02-21T09:18:59;8.00;;;4.30;;
66585;SDS011;53444;45.822;16.092;2024-02-21T09:21:26;10.07;;;3.72;;
66585;SDS011;53444;45.822;16.092;2024-02-21T09:23:54;4.80;;;2.97;;
66585;SDS011;53444;45.822;16.092;2024-02-21T09:26:20;5.00;;;2.70;;
66585;SDS011;53444;45.822;16.092;2024-02-21T09:28:47;4.82;;;2.35;;
66585;SDS011;53444;45.822;16.092;2024-02-21T09:31:14;5.63;;;2.30;;
66585;SDS011;53444;45.822;16.092;2024-02-21T09:33:42;4.57;;;2.60;;
66585;SDS011;53444;45.822;16.092;2024-02-21T09:36:09;3.60;;;1.90;;
66585;SDS011;53444;45.822;16.092;2024-02-21T09:38:35;4.10;;;2.10;;
66585;SDS011;53444;45.822;16.092;2024-02-21T09:41:04;2.92;;;1.80;;
66585;SDS011;53444;45.822;16.092;2024-02-21T09:43:41;4.00;;;2.20;;
66585;SDS011;53444;45.822;16.092;2024-02-21T09:46:08;5.07;;;2.20;;
66585;SDS011;53444;45.822;16.092;2024-02-21T09:48:46;4.22;;;2.63;;
66585;SDS011;53444;45.822;16.092;2024-02-21T09:51:24;4.18;;;2.33;;
66585;SDS011;53444;45.822;16.092;2024-02-21T09:53:57;5.88;;;2.08;;
66585;SDS011;53444;45.822;16.092;2024-02-21T09:56:25;5.68;;;2.80;;
66585;SDS011;53444;45.822;16.092;2024-02-21T09:58:52;5.55;;;2.38;;
66585;SDS011;53444;45.822;16.092;2024-02-21T10:01:19;3.90;;;1.90;;
66585;SDS011;53444;45.822;16.092;2024-02-21T10:03:47;3.92;;;2.03;;
66585;SDS011;53444;45.822;16.092;2024-02-21T10:06:20;2.70;;;1.63;;
66585;SDS011;53444;45.822;16.092;2024-02-21T10:08:51;4.43;;;2.05;;
66585;SDS011;53444;45.822;16.092;2024-02-21T10:11:21;2.80;;;1.60;;
66585;SDS011;53444;45.822;16.092;2024-02-21T10:13:49;4.13;;;2.05;;
66585;SDS011;53444;45.822;16.092;2024-02-21T10:16:16;5.57;;;2.28;;
66585;SDS011;53444;45.822;16.092;2024-02-21T10:18:43;5.95;;;2.50;;
66585;SDS011;53444;45.822;16.092;2024-02-21T10:21:12;3.72;;;2.25;;
66585;SDS011;53444;45.822;16.092;2024-02-21T10:23:45;4.95;;;2.55;;
66585;SDS011;53444;45.822;16.092;2024-02-21T10:26:13;3.85;;;1.90;;
66585;SDS011;53444;45.822;16.092;2024-02-21T10:28:40;4.37;;;2.40;;
66585;SDS011;53444;45.822;16.092;2024-02-21T10:31:10;7.15;;;2.03;;
66585;SDS011;53444;45.822;16.092;2024-02-21T10:33:38;4.07;;;1.90;;
66585;SDS011;53444;45.822;16.092;2024-02-21T10:36:08;6.05;;;2.17;;
66585;SDS011;53444;45.822;16.092;2024-02-21T10:38:38;2.95;;;1.83;;
66585;SDS011;53444;45.822;16.092;2024-02-21T10:41:05;5.40;;;2.08;;
66585;SDS011;53444;45.822;16.092;2024-02-21T10:43:35;3.40;;;2.33;;
66585;SDS011;53444;45.822;16.092;2024-02-21T10:46:07;4.88;;;2.80;;
66585;SDS011;53444;45.822;16.092;2024-02-21T10:48:38;5.60;;;2.40;;
66585;SDS011;53444;45.822;16.092;2024-02-21T10:51:11;6.38;;;2.63;;
66585;SDS011;53444;45.822;16.092;2024-02-21T10:53:44;3.83;;;2.55;;
66585;SDS011;53444;45.822;16.092;2024-02-21T10:56:16;4.50;;;2.47;;
66585;SDS011;53444;45.822;16.092;2024-02-21T10:58:49;4.95;;;2.40;;
66585;SDS011;53444;45.822;16.092;2024-02-21T11:01:16;6.75;;;2.53;;
66585;SDS011;53444;45.822;16.092;2024-02-21T11:03:44;5.18;;;2.30;;
66585;SDS011;53444;45.822;16.092;2024-02-21T11:06:13;5.18;;;2.25;;
66585;SDS011;53444;45.822;16.092;2024-02-21T11:08:43;5.53;;;2.67;;
66585;SDS011;53444;45.822;16.092;2024-02-21T11:11:12;4.32;;;2.30;;
66585;SDS011;53444;45.822;16.092;2024-02-21T11:13:42;4.88;;;2.30;;
66585;SDS011;53444;45.822;16.092;2024-02-21T11:16:11;7.90;;;2.35;;
66585;SDS011;53444;45.822;16.092;2024-02-21T11:18:47;6.85;;;2.50;;
66585;SDS011;53444;45.822;16.092;2024-02-21T11:21:15;4.72;;;2.28;;
66585;SDS011;53444;45.822;16.092;2024-02-21T11:23:44;4.50;;;2.50;;
66585;SDS011;53444;45.822;16.092;2024-02-21T11:26:22;4.65;;;2.45;;
66585;SDS011;53444;45.822;16.092;2024-02-21T11:28:55;4.68;;;2.60;;
66585;SDS011;53444;45.822;16.092;2024-02-21T11:31:23;4.45;;;2.80;;
66585;SDS011;53444;45.822;16.092;2024-02-21T11:33:52;7.38;;;2.80;;
66585;SDS011;53444;45.822;16.092;2024-02-21T11:36:23;5.20;;;2.40;;
66585;SDS011;53444;45.822;16.092;2024-02-21T11:38:52;3.00;;;2.15;;
66585;SDS011;53444;45.822;16.092;2024-02-21T11:41:19;4.97;;;2.15;;
66585;SDS011;53444;45.822;16.092;2024-02-21T11:43:48;5.30;;;2.60;;
66585;SDS011;53444;45.822;16.092;2024-02-21T11:46:15;4.03;;;2.05;;
66585;SDS011;53444;45.822;16.092;2024-02-21T11:48:42;4.13;;;1.98;;
66585;SDS011;53444;45.822;16.092;2024-02-21T11:51:09;4.43;;;2.25;;
66585;SDS011;53444;45.822;16.092;2024-02-21T11:53:36;3.42;;;1.92;;
66585;SDS011;53444;45.822;16.092;2024-02-21T11:56:05;4.95;;;2.40;;
66585;SDS011;53444;45.822;16.092;2024-02-21T11:58:32;4.90;;;2.30;;
66585;SDS011;53444;45.822;16.092;2024-02-21T12:00:59;6.28;;;2.38;;
66585;SDS011;53444;45.822;16.092;2024-02-21T12:03:27;5.75;;;2.10;;
66585;SDS011;53444;45.822;16.092;2024-02-21T12:05:54;4.25;;;2.13;;
66585;SDS011;53444;45.822;16.092;2024-02-21T12:08:23;3.80;;;1.80;;
66585;SDS011;53444;45.822;16.092;2024-02-21T12:10:50;5.15;;;2.20;;
66585;SDS011;53444;45.822;16.092;2024-02-21T12:13:18;3.45;;;1.90;;
66585;SDS011;53444;45.822;16.092;2024-02-21T12:15:51;2.67;;;1.60;;
66585;SDS011;53444;45.822;16.092;2024-02-21T12:18:18;4.80;;;2.03;;
66585;SDS011;53444;45.822;16.092;2024-02-21T12:20:47;3.00;;;2.00;;
66585;SDS011;53444;45.822;16.092;2024-02-21T12:23:14;3.63;;;1.77;;
66585;SDS011;53444;45.822;16.092;2024-02-21T12:25:41;3.67;;;1.80;;
66585;SDS011;53444;45.822;16.092;2024-02-21T12:28:09;4.40;;;1.95;;
66585;SDS011;53444;45.822;16.092;2024-02-21T12:30:37;4.13;;;1.70;;
66585;SDS011;53444;45.822;16.092;2024-02-21T12:33:05;2.80;;;2.08;;
66585;SDS011;53444;45.822;16.092;2024-02-21T12:35:32;2.58;;;1.70;;
66585;SDS011;53444;45.822;16.092;2024-02-21T12:38:01;5.55;;;2.33;;
66585;SDS011;53444;45.822;16.092;2024-02-21T12:40:28;4.32;;;1.90;;
66585;SDS011;53444;45.822;16.092;2024-02-21T12:42:57;2.90;;;1.55;;
66585;SDS011;53444;45.822;16.092;2024-02-21T12:45:24;2.47;;;1.60;;
66585;SDS011;53444;45.822;16.092;2024-02-21T12:47:53;3.00;;;1.80;;
66585;SDS011;53444;45.822;16.092;2024-02-21T12:50:19;5.90;;;3.03;;
66585;SDS011;53444;45.822;16.092;2024-02-21T12:52:47;2.78;;;1.85;;
66585;SDS011;53444;45.822;16.092;2024-02-21T12:55:15;3.40;;;1.70;;
66585;SDS011;53444;45.822;16.092;2024-02-21T12:57:42;4.43;;;1.73;;
66585;SDS011;53444;45.822;16.092;2024-02-21T13:00:09;1.67;;;1.30;;
66585;SDS011;53444;45.822;16.092;2024-02-21T13:02:36;2.53;;;1.58;;
66585;SDS011;53444;45.822;16.092;2024-02-21T13:05:05;5.75;;;1.98;;
66585;SDS011;53444;45.822;16.092;2024-02-21T13:07:33;5.43;;;2.08;;
66585;SDS011;53444;45.822;16.092;2024-02-21T13:10:02;2.72;;;1.75;;
66585;SDS011;53444;45.822;16.092;2024-02-21T13:12:30;4.10;;;1.80;;
66585;SDS011;53444;45.822;16.092;2024-02-21T13:14:57;3.45;;;1.63;;
66585;SDS011;53444;45.822;16.092;2024-02-21T13:17:23;3.65;;;1.88;;
66585;SDS011;53444;45.822;16.092;2024-02-21T13:19:55;3.47;;;1.98;;
66585;SDS011;53444;45.822;16.092;2024-02-21T13:22:23;3.55;;;1.90;;
66585;SDS011;53444;45.822;16.092;2024-02-21T13:24:51;3.50;;;2.00;;
66585;SDS011;53444;45.822;16.092;2024-02-21T13:27:18;4.25;;;2.03;;
66585;SDS011;53444;45.822;16.092;2024-02-21T13:29:45;4.18;;;1.80;;
66585;SDS011;53444;45.822;16.092;2024-02-21T13:32:13;5.70;;;2.45;;
66585;SDS011;53444;45.822;16.092;2024-02-21T13:34:40;4.63;;;2.40;;
66585;SDS011;53444;45.822;16.092;2024-02-21T13:37:08;4.32;;;1.80;;
66585;SDS011;53444;45.822;16.092;2024-02-21T13:39:42;2.78;;;1.80;;
66585;SDS011;53444;45.822;16.092;2024-02-21T13:42:08;2.13;;;1.58;;
66585;SDS011;53444;45.822;16.092;2024-02-21T13:44:36;3.85;;;2.58;;
66585;SDS011;53444;45.822;16.092;2024-02-21T13:47:03;3.42;;;2.13;;
66585;SDS011;53444;45.822;16.092;2024-02-21T13:49:30;3.13;;;1.97;;
66585;SDS011;53444;45.822;16.092;2024-02-21T13:51:57;4.68;;;2.10;;
66585;SDS011;53444;45.822;16.092;2024-02-21T13:54:24;3.67;;;1.88;;
66585;SDS011;53444;45.822;16.092;2024-02-21T13:56:52;2.53;;;1.85;;
66585;SDS011;53444;45.822;16.092;2024-02-21T13:59:19;3.05;;;1.55;;
66585;SDS011;53444;45.822;16.092;2024-02-21T14:01:45;4.07;;;1.90;;
66585;SDS011;53444;45.822;16.092;2024-02-21T14:04:12;2.60;;;1.70;;
66585;SDS011;53444;45.822;16.092;2024-02-21T14:06:39;3.35;;;1.80;;
66585;SDS011;53444;45.822;16.092;2024-02-21T14:09:08;2.63;;;1.70;;
66585;SDS011;53444;45.822;16.092;2024-02-21T14:11:35;3.10;;;1.80;;
66585;SDS011;53444;45.822;16.092;2024-02-21T14:14:04;5.63;;;2.43;;
66585;SDS011;53444;45.822;16.092;2024-02-21T14:16:31;2.53;;;1.77;;
66585;SDS011;53444;45.822;16.092;2024-02-21T14:18:58;3.45;;;2.00;;
66585;SDS011;53444;45.822;16.092;2024-02-21T14:21:25;3.65;;;1.92;;
66585;SDS011;53444;45.822;16.092;2024-02-21T14:23:53;3.50;;;2.20;;
66585;SDS011;53444;45.822;16.092;2024-02-21T14:26:21;3.90;;;2.17;;
66585;SDS011;53444;45.822;16.092;2024-02-21T14:28:48;4.97;;;2.55;;
66585;SDS011;53444;45.822;16.092;2024-02-21T14:31:16;3.60;;;2.20;;